Time;durP1;ratioP1;P1;durP2;ratioP2;P2;SDS_P1;SDS_P2;PMS_P1;PMS_P2;Temp;Humidity;BMP_temperature;BMP_pressure;BME280_temperature;BME280_humidity;BME280_pressure;Samples;Min_cycle;Max_cycle;Signal;HPM_P1;HPM_P2
2022/07/10 00:01:18;;;;;;;11.43;6.00;;;;;;;12.97;100.00;102080.53;5051618;28;20516;-49
2022/07/10 00:03:46;;;;;;;12.07;5.53;;;;;;;12.96;100.00;102083.41;5051898;28;20526;-48
2022/07/10 00:06:14;;;;;;;7.93;5.37;;;;;;;12.97;100.00;102090.41;5052294;28;20641;-47
2022/07/10 00:08:43;;;;;;;10.50;6.10;;;;;;;12.97;100.00;102091.25;5052110;28;20514;-48
2022/07/10 00:11:11;;;;;;;10.90;6.50;;;;;;;12.93;100.00;102091.78;5051721;28;20478;-46
2022/07/10 00:13:39;;;;;;;10.50;5.90;;;;;;;12.96;100.00;102097.59;5051930;28;20529;-48
2022/07/10 00:16:07;;;;;;;14.37;6.17;;;;;;;12.92;100.00;102085.59;5052088;28;20471;-49
2022/07/10 00:18:34;;;;;;;10.20;7.17;;;;;;;12.92;100.00;102090.13;5051982;28;20527;-46
2022/07/10 00:21:02;;;;;;;14.53;5.77;;;;;;;12.91;100.00;102075.88;5051440;28;20465;-47
2022/07/10 00:23:30;;;;;;;9.83;5.90;;;;;;;12.92;100.00;102082.09;5051592;28;20526;-50
2022/07/10 00:25:59;;;;;;;12.57;5.67;;;;;;;12.85;100.00;102076.59;5052048;28;20793;-49
2022/07/10 00:28:27;;;;;;;17.50;7.20;;;;;;;12.81;100.00;102085.19;5051885;28;20550;-51
2022/07/10 00:30:54;;;;;;;11.03;6.33;;;;;;;12.87;100.00;102081.78;5051290;28;20523;-50
2022/07/10 00:33:22;;;;;;;18.53;6.80;;;;;;;12.91;100.00;102083.91;5044389;28;20798;-47
2022/07/10 00:35:50;;;;;;;14.50;5.97;;;;;;;12.89;100.00;102077.91;5049304;28;20475;-47
2022/07/10 00:38:17;;;;;;;9.70;6.77;;;;;;;12.99;100.00;102083.03;5051702;28;20441;-47
2022/07/10 00:40:45;;;;;;;15.30;6.10;;;;;;;13.01;100.00;102083.69;5051301;28;20882;-47
2022/07/10 00:43:14;;;;;;;9.63;5.83;;;;;;;12.95;100.00;102081.72;5051546;28;20525;-50
2022/07/10 00:45:41;;;;;;;10.03;6.10;;;;;;;12.96;100.00;102080.72;5051642;28;20438;-48
2022/07/10 00:48:10;;;;;;;17.80;6.77;;;;;;;12.94;100.00;102069.34;5051538;28;20501;-49
2022/07/10 00:50:38;;;;;;;16.40;7.63;;;;;;;12.88;100.00;102075.41;5051510;28;20477;-49
2022/07/10 00:53:05;;;;;;;17.80;6.10;;;;;;;12.89;100.00;102071.72;5051307;28;20447;-49
2022/07/10 00:55:36;;;;;;;19.33;7.17;;;;;;;12.88;100.00;102072.72;5051521;28;20506;-49
2022/07/10 00:58:08;;;;;;;16.30;7.10;;;;;;;12.83;100.00;102067.94;5051465;28;20446;-49
2022/07/10 01:00:37;;;;;;;13.70;6.87;;;;;;;12.83;100.00;102065.25;5051441;28;20423;-50
2022/07/10 01:03:06;;;;;;;16.23;7.57;;;;;;;12.87;100.00;102068.41;5050665;28;20455;-49
2022/07/10 01:05:34;;;;;;;19.50;7.77;;;;;;;12.86;100.00;102061.38;5051680;28;20844;-51
2022/07/10 01:08:02;;;;;;;19.63;6.43;;;;;;;12.79;100.00;102053.22;5051721;28;20431;-51
2022/07/10 01:10:30;;;;;;;12.47;6.87;;;;;;;12.76;100.00;102049.06;5051347;28;20457;-50
2022/07/10 01:12:57;;;;;;;11.00;6.03;;;;;;;12.73;100.00;102057.44;5050444;28;20473;-46
2022/07/10 01:15:25;;;;;;;10.57;5.90;;;;;;;12.72;100.00;102058.47;5051134;28;20474;-46
2022/07/10 01:17:55;;;;;;;13.10;5.90;;;;;;;12.77;100.00;102055.25;5051456;28;20445;-46
2022/07/10 01:20:32;;;;;;;15.77;6.33;;;;;;;12.73;100.00;102057.44;5051459;28;20428;-48
2022/07/10 01:23:01;;;;;;;11.77;6.20;;;;;;;12.73;100.00;102061.97;5050601;28;20461;-47
2022/07/10 01:25:29;;;;;;;12.13;6.57;;;;;;;12.64;100.00;102061.19;5051269;28;20431;-46
2022/07/10 01:27:58;;;;;;;10.20;6.00;;;;;;;12.65;100.00;102051.34;5054649;28;20434;-48
2022/07/10 01:30:26;;;;;;;21.80;7.20;;;;;;;12.63;100.00;102056.03;5055359;28;20518;-46
2022/07/10 01:32:54;;;;;;;16.40;6.57;;;;;;;12.61;100.00;102060.72;5051106;28;20540;-47
2022/07/10 01:35:22;;;;;;;16.13;6.63;;;;;;;12.63;100.00;102070.22;5048903;28;20469;-45
2022/07/10 01:37:50;;;;;;;10.47;6.50;;;;;;;12.62;100.00;102076.59;5054979;28;20438;-45
2022/07/10 01:40:19;;;;;;;11.00;7.27;;;;;;;12.70;100.00;102073.88;5054845;28;20437;-49
2022/07/10 01:42:47;;;;;;;15.77;6.53;;;;;;;12.67;100.00;102076.91;5054034;28;20554;-45
2022/07/10 01:45:17;;;;;;;19.00;8.13;;;;;;;12.69;100.00;102066.84;5054971;28;20940;-46
2022/07/10 01:47:45;;;;;;;11.10;7.07;;;;;;;12.64;100.00;102061.19;5054920;28;20790;-48
2022/07/10 01:50:13;;;;;;;15.60;6.40;;;;;;;12.67;100.00;102060.00;5054804;28;20431;-44
2022/07/10 01:52:40;;;;;;;17.97;6.40;;;;;;;12.63;100.00;102061.38;5053827;28;20542;-46
2022/07/10 01:55:09;;;;;;;19.07;7.00;;;;;;;12.59;100.00;102058.22;5054596;28;20542;-46
2022/07/10 01:57:38;;;;;;;11.23;6.53;;;;;;;12.58;100.00;102051.19;5054674;28;20481;-49
2022/07/10 02:00:07;;;;;;;12.10;6.27;;;;;;;12.56;100.00;102060.44;5054767;28;20435;-44
2022/07/10 02:02:35;;;;;;;19.23;7.20;;;;;;;12.53;100.00;102048.25;5053631;28;20459;-46
2022/07/10 02:05:02;;;;;;;13.43;6.00;;;;;;;12.51;100.00;102052.94;5054729;28;20434;-44
2022/07/10 02:07:30;;;;;;;16.00;6.70;;;;;;;12.50;100.00;102050.44;5054230;28;20432;-44
2022/07/10 02:09:57;;;;;;;17.37;6.60;;;;;;;12.49;100.00;102048.75;5054570;28;20812;-44
2022/07/10 02:12:25;;;;;;;13.33;6.10;;;;;;;12.53;100.00;102045.56;5053732;28;20473;-47
2022/07/10 02:14:56;;;;;;;11.83;6.90;;;;;;;12.52;100.00;102046.56;5054210;28;20446;-47
2022/07/10 02:17:24;;;;;;;10.33;6.27;;;;;;;12.55;99.89;102048.03;5054439;28;20478;-44
2022/07/10 02:19:51;;;;;;;16.93;7.20;;;;;;;12.54;99.94;102047.25;5054065;28;20439;-47
2022/07/10 02:22:19;;;;;;;17.13;7.27;;;;;;;12.54;99.63;102044.56;5053500;28;20475;-45
2022/07/10 02:24:47;;;;;;;18.10;7.90;;;;;;;12.56;99.64;102042.53;5054197;28;20431;-46
2022/07/10 02:27:14;;;;;;;21.50;7.20;;;;;;;12.48;99.38;102049.78;5054321;28;20434;-44
2022/07/10 02:29:42;;;;;;;21.97;6.40;;;;;;;12.44;99.89;102043.13;5054166;28;20438;-45
2022/07/10 02:32:11;;;;;;;7.70;5.80;;;;;;;12.38;100.00;102047.34;5051788;28;20467;-47
2022/07/10 02:34:39;;;;;;;12.33;6.47;;;;;;;12.38;100.00;102051.84;5045522;28;20450;-45
2022/07/10 02:37:06;;;;;;;13.60;6.30;;;;;;;12.39;100.00;102054.38;5053551;28;20566;-46
2022/07/10 02:39:34;;;;;;;9.93;6.20;;;;;;;12.34;100.00;102056.72;5053118;28;20431;-44
2022/07/10 02:42:02;;;;;;;8.83;6.00;;;;;;;12.36;100.00;102053.88;5053257;28;20806;-47
2022/07/10 02:44:29;;;;;;;14.63;6.30;;;;;;;12.31;100.00;102050.88;5053727;28;20530;-47
2022/07/10 02:46:57;;;;;;;15.90;6.47;;;;;;;12.27;100.00;102054.94;5053588;28;20598;-45
2022/07/10 02:49:26;;;;;;;10.87;6.03;;;;;;;12.24;100.00;102057.94;5053596;28;20513;-44
2022/07/10 02:51:54;;;;;;;18.80;7.00;;;;;;;12.25;100.00;102046.22;5053278;28;20546;-47
2022/07/10 02:54:21;;;;;;;15.57;6.10;;;;;;;12.23;100.00;102049.09;5053594;28;20526;-48
2022/07/10 02:56:49;;;;;;;9.03;5.83;;;;;;;12.30;100.00;102043.88;5053367;28;21107;-47
2022/07/10 02:59:18;;;;;;;11.37;6.03;;;;;;;12.24;100.00;102034.72;5053517;28;20824;-44
2022/07/10 03:01:46;;;;;;;16.70;6.60;;;;;;;12.21;100.00;102037.75;5052627;28;20862;-47
2022/07/10 03:04:13;;;;;;;15.70;6.40;;;;;;;12.18;99.94;102036.22;5053338;28;20431;-49
2022/07/10 03:06:42;;;;;;;15.00;5.90;;;;;;;12.17;97.73;102033.75;5053311;28;20431;-48
2022/07/10 03:09:10;;;;;;;15.87;6.93;;;;;;;12.17;96.99;102036.41;5053362;28;20432;-45
2022/07/10 03:11:37;;;;;;;20.57;6.50;;;;;;;12.23;96.22;102032.19;5052740;28;20470;-50
2022/07/10 03:14:05;;;;;;;12.90;6.50;;;;;;;12.30;97.32;102027.84;5052930;28;20435;-45
2022/07/10 03:16:33;;;;;;;15.40;6.40;;;;;;;12.39;97.77;102032.13;5053314;28;20477;-44
2022/07/10 03:19:01;;;;;;;11.43;6.27;;;;;;;12.33;95.38;102024.81;5053210;28;20512;-44
2022/07/10 03:21:30;;;;;;;14.93;6.80;;;;;;;12.39;95.19;102030.28;5052622;28;20470;-45
2022/07/10 03:23:58;;;;;;;16.60;6.30;;;;;;;12.44;95.36;102035.09;5052797;28;20546;-46
2022/07/10 03:26:29;;;;;;;13.10;6.13;;;;;;;12.41;94.55;102028.25;5052963;28;20431;-49
2022/07/10 03:28:56;;;;;;;14.87;6.17;;;;;;;12.43;94.61;102022.72;5041405;28;20519;-47
2022/07/10 03:31:24;;;;;;;6.37;5.07;;;;;;;12.46;95.42;102033.06;5037922;28;20506;-49
2022/07/10 03:33:52;;;;;;;16.13;5.63;;;;;;;12.47;94.84;102030.22;5045830;28;21153;-48
2022/07/10 03:36:20;;;;;;;6.93;4.80;;;;;;;12.54;94.56;102035.69;5046174;28;21038;-52
2022/07/10 03:38:48;;;;;;;12.33;6.90;;;;;;;12.51;93.33;102030.69;5052884;28;20534;-51
2022/07/10 03:41:17;;;;;;;15.73;5.80;;;;;;;12.52;93.28;102022.47;5052184;28;20895;-48
2022/07/10 03:43:44;;;;;;;8.23;5.77;;;;;;;12.58;92.64;102034.31;5052695;28;20526;-46
2022/07/10 03:46:12;;;;;;;13.87;6.13;;;;;;;12.62;91.62;102033.78;5052311;28;20936;-48
2022/07/10 03:48:39;;;;;;;11.43;5.27;;;;;;;12.60;90.38;102029.63;5051565;28;20435;-47
2022/07/10 03:51:08;;;;;;;12.80;5.40;;;;;;;12.64;90.54;102033.59;5032897;28;20525;-49
2022/07/10 03:53:36;;;;;;;8.20;5.63;;;;;;;12.65;91.28;102035.28;5033541;28;20428;-50
2022/07/10 03:56:04;;;;;;;17.40;7.30;;;;;;;12.67;91.26;102025.22;5035274;28;20437;-50
2022/07/10 03:58:32;;;;;;;14.60;5.90;;;;;;;12.78;90.91;102027.50;5033759;28;20527;-50
2022/07/10 04:01:00;;;;;;;11.83;5.87;;;;;;;12.78;89.41;102025.63;5041878;28;21151;-51
2022/07/10 04:03:28;;;;;;;15.37;5.73;;;;;;;12.89;90.60;102029.72;5052161;28;20454;-49
2022/07/10 04:05:55;;;;;;;14.40;6.20;;;;;;;12.95;88.48;102029.00;5052261;28;20469;-49
2022/07/10 04:08:23;;;;;;;10.73;6.13;;;;;;;13.00;87.51;102029.28;5030521;28;20432;-50
2022/07/10 04:10:51;;;;;;;12.70;5.20;;;;;;;13.00;86.24;102028.44;5034657;28;20428;-53
2022/07/10 04:13:18;;;;;;;15.73;5.43;;;;;;;13.00;86.96;102034.66;5033689;28;20515;-49
2022/07/10 04:15:47;;;;;;;10.73;5.50;;;;;;;13.06;87.24;102030.41;5034110;28;20437;-50
2022/07/10 04:18:15;;;;;;;17.07;5.63;;;;;;;13.06;86.58;102030.41;5040091;28;20507;-47
2022/07/10 04:20:43;;;;;;;11.03;5.77;;;;;;;13.03;86.15;102020.88;5048236;28;20496;-53
2022/07/10 04:23:11;;;;;;;10.47;5.10;;;;;;;13.06;85.94;102028.56;5051888;28;20526;-47
2022/07/10 04:25:38;;;;;;;8.23;4.97;;;;;;;13.13;85.18;102026.03;5052150;28;20423;-49
2022/07/10 04:28:06;;;;;;;23.30;6.07;;;;;;;13.15;85.29;102026.66;5052160;28;20427;-48
2022/07/10 04:30:33;;;;;;;13.40;5.27;;;;;;;13.23;84.94;102018.56;5051803;28;20439;-46
2022/07/10 04:33:02;;;;;;;6.80;4.30;;;;;;;13.22;84.11;102020.41;5033944;28;21044;-48
2022/07/10 04:35:30;;;;;;;10.40;5.17;;;;;;;13.28;84.91;102024.22;5019722;28;20780;-52
2022/07/10 04:37:58;;;;;;;10.47;5.40;;;;;;;13.34;84.04;102015.44;5014213;28;20477;-49
2022/07/10 04:40:26;;;;;;;13.67;5.10;;;;;;;13.48;83.77;102016.44;5014127;28;20433;-47
2022/07/10 04:42:54;;;;;;;16.60;6.00;;;;;;;13.48;83.09;102016.44;5027587;28;20491;-51
2022/07/10 04:45:22;;;;;;;6.73;4.33;;;;;;;13.58;83.06;102020.53;5033616;28;20519;-47
2022/07/10 04:47:49;;;;;;;10.90;4.40;;;;;;;13.58;82.47;102020.53;5033015;28;20494;-50
2022/07/10 04:50:18;;;;;;;13.70;5.73;;;;;;;13.60;82.39;102014.97;5033903;28;20995;-50
2022/07/10 04:52:46;;;;;;;11.63;5.17;;;;;;;13.59;81.08;102021.38;5031983;28;20547;-50
2022/07/10 04:55:14;;;;;;;10.63;4.40;;;;;;;13.65;81.87;102023.31;5034048;28;20531;-48
2022/07/10 04:57:44;;;;;;;13.07;6.20;;;;;;;13.63;81.92;102017.28;5033609;28;20471;-48
2022/07/10 05:00:13;;;;;;;10.90;5.03;;;;;;;13.57;81.95;102023.38;5033350;28;20440;-51
2022/07/10 05:02:40;;;;;;;10.47;4.50;;;;;;;13.57;82.72;102026.06;5037200;28;20542;-45
2022/07/10 05:05:09;;;;;;;9.83;5.40;;;;;;;13.55;82.46;102022.75;5038140;28;20447;-52
2022/07/10 05:07:38;;;;;;;12.60;4.50;;;;;;;13.42;81.42;102038.63;5037501;28;20500;-48
2022/07/10 05:10:06;;;;;;;5.83;4.47;;;;;;;13.55;82.30;102031.63;5037574;28;20467;-50
2022/07/10 05:12:34;;;;;;;7.70;4.80;;;;;;;13.67;82.81;102032.81;5037023;28;20555;-52
2022/07/10 05:15:02;;;;;;;19.67;5.33;;;;;;;13.75;80.96;102030.03;5035698;28;20436;-49
2022/07/10 05:17:31;;;;;;;9.27;5.07;;;;;;;14.03;81.19;102030.19;5035921;28;20475;-45
2022/07/10 05:19:59;;;;;;;11.57;5.30;;;;;;;14.19;80.56;102032.63;5035609;28;20472;-47
2022/07/10 05:22:27;;;;;;;9.60;4.40;;;;;;;14.65;81.65;102038.53;5034666;28;20491;-45
2022/07/10 05:24:56;;;;;;;15.30;4.80;;;;;;;15.48;72.58;102035.09;5035305;28;20512;-45
2022/07/10 05:27:24;;;;;;;10.80;4.63;;;;;;;15.46;73.90;102037.97;5035095;28;20523;-46
2022/07/10 05:29:52;;;;;;;14.60;4.80;;;;;;;15.30;74.62;102029.34;5034695;28;20438;-44
2022/07/10 05:32:19;;;;;;;8.20;4.40;;;;;;;15.20;73.73;102037.75;5039522;28;20486;-50
2022/07/10 05:34:47;;;;;;;8.27;4.30;;;;;;;15.16;73.49;102038.34;5046712;28;20506;-47
2022/07/10 05:37:14;;;;;;;8.67;4.20;;;;;;;15.03;73.26;102049.81;5054979;28;20792;-48
2022/07/10 05:39:42;;;;;;;13.07;5.27;;;;;;;15.04;76.17;102026.47;5054847;28;20437;-51
2022/07/10 05:42:11;;;;;;;13.10;5.07;;;;;;;14.79;76.01;102040.31;5053954;28;20485;-45
2022/07/10 05:44:39;;;;;;;6.73;4.93;;;;;;;14.71;77.92;102039.63;5055118;28;20427;-50
2022/07/10 05:47:07;;;;;;;8.73;4.57;;;;;;;14.71;78.09;102039.63;5054086;28;20478;-49
2022/07/10 05:49:34;;;;;;;5.63;4.20;;;;;;;14.62;76.85;102046.13;5054222;28;20465;-49
2022/07/10 05:52:02;;;;;;;16.57;5.23;;;;;;;14.64;78.93;102036.03;5053385;28;20491;-47
2022/07/10 05:54:29;;;;;;;8.80;5.00;;;;;;;14.63;77.54;102032.53;5039743;28;20530;-48
2022/07/10 05:56:58;;;;;;;6.33;4.50;;;;;;;14.65;76.03;102041.22;5021222;28;20445;-46
2022/07/10 05:59:27;;;;;;;9.10;4.80;;;;;;;14.67;78.37;102046.38;5029759;28;20575;-50
2022/07/10 06:01:55;;;;;;;9.80;4.50;;;;;;;14.74;77.55;102041.94;5031858;28;20570;-47
2022/07/10 06:04:22;;;;;;;8.43;4.47;;;;;;;14.71;75.18;102039.63;5014318;28;20433;-47
2022/07/10 06:06:50;;;;;;;12.50;4.80;;;;;;;14.70;77.97;102029.91;5014096;28;20499;-49
2022/07/10 06:09:18;;;;;;;8.27;4.40;;;;;;;14.71;75.65;102043.16;5023850;28;20435;-53
2022/07/10 06:11:48;;;;;;;4.33;3.33;;;;;;;14.75;74.84;102039.06;5033253;28;20993;-48
2022/07/10 06:14:15;;;;;;;6.73;4.70;;;;;;;14.76;76.92;102035.34;5030622;28;20528;-49
2022/07/10 06:16:44;;;;;;;9.90;4.47;;;;;;;14.78;74.75;102035.16;5030961;28;20522;-47
2022/07/10 06:19:12;;;;;;;5.93;3.83;;;;;;;14.85;73.21;102044.09;5033485;28;20482;-49
2022/07/10 06:21:39;;;;;;;6.63;4.00;;;;;;;14.93;73.13;102030.53;5033127;28;20479;-50
2022/07/10 06:24:07;;;;;;;7.47;5.03;;;;;;;15.27;72.88;102035.13;5033895;28;20432;-47
2022/07/10 06:26:35;;;;;;;6.20;3.97;;;;;;;15.38;70.98;102042.66;5033266;28;20531;-50
2022/07/10 06:29:03;;;;;;;8.60;4.53;;;;;;;16.43;66.52;102045.84;5033607;28;20436;-51
2022/07/10 06:31:30;;;;;;;8.70;6.20;;;;;;;17.19;63.20;102032.91;5033180;28;20476;-49
2022/07/10 06:33:59;;;;;;;6.40;5.70;;;;;;;18.09;60.55;102041.84;5043819;28;20432;-53
2022/07/10 06:36:27;;;;;;;10.73;5.57;;;;;;;18.68;56.84;102046.09;5052923;28;20517;-49
2022/07/10 06:39:00;;;;;;;7.63;5.53;;;;;;;19.28;54.09;102044.56;5039816;28;20467;-48
2022/07/10 06:41:28;;;;;;;9.67;4.40;;;;;;;19.17;52.70;102032.63;5032912;28;20848;-47
2022/07/10 06:43:55;;;;;;;8.37;4.57;;;;;;;18.57;56.21;102047.63;5032926;28;20508;-50
2022/07/10 06:46:23;;;;;;;7.13;4.10;;;;;;;19.12;54.05;102047.81;5032646;28;20522;-53
2022/07/10 06:48:49;;;;;;;6.50;4.30;;;;;;;18.41;52.94;102049.97;5032791;28;20933;-51
2022/07/10 06:51:18;;;;;;;6.50;3.97;;;;;;;19.24;49.85;102048.75;5021207;28;20470;-50
2022/07/10 06:53:46;;;;;;;4.20;3.80;;;;;;;20.01;49.52;102039.22;5013433;28;20528;-51
2022/07/10 06:56:16;;;;;;;4.87;4.47;;;;;;;19.25;50.66;102032.31;5013184;28;20474;-53
2022/07/10 06:58:43;;;;;;;6.07;3.80;;;;;;;18.94;51.11;102031.53;5022584;28;20505;-51
2022/07/10 07:01:11;;;;;;;8.67;4.73;;;;;;;18.75;52.86;102052.28;5052205;28;21027;-51
2022/07/10 07:03:39;;;;;;;6.80;4.60;;;;;;;17.99;54.28;102041.47;5053062;28;20466;-48
2022/07/10 07:06:06;;;;;;;11.33;5.00;;;;;;;17.47;58.71;102044.28;5052860;28;20517;-52
2022/07/10 07:08:36;;;;;;;13.90;4.63;;;;;;;17.48;55.89;102038.66;5052452;28;20427;-47
2022/07/10 07:11:04;;;;;;;9.70;4.90;;;;;;;17.58;56.87;102032.88;5052513;28;20459;-51
2022/07/10 07:13:32;;;;;;;8.40;4.50;;;;;;;18.56;54.60;102031.63;5043461;28;20442;-47
2022/07/10 07:16:00;;;;;;;8.43;5.33;;;;;;;18.63;53.68;102037.81;5032510;28;20518;-53
2022/07/10 07:18:32;;;;;;;6.17;4.87;;;;;;;18.77;52.02;102031.28;5032391;28;20474;-47
2022/07/10 07:23:47;;;;;;;5.77;3.83;;;;;;;18.53;55.39;102032.91;5032082;28;20518;-48
2022/07/10 07:26:15;;;;;;;10.30;4.10;;;;;;;18.71;55.14;102026.75;5032077;28;20522;-53
2022/07/10 07:28:42;;;;;;;7.00;4.50;;;;;;;19.14;52.46;102024.13;5032358;28;20523;-48
2022/07/10 07:31:10;;;;;;;5.97;4.03;;;;;;;19.05;51.17;102022.75;5031890;28;20478;-49
2022/07/10 07:33:42;;;;;;;6.50;4.63;;;;;;;19.40;52.27;102028.47;5040645;28;20436;-48
2022/07/10 07:36:09;;;;;;;10.20;4.87;;;;;;;18.38;51.80;102026.09;5051869;28;20497;-48
2022/07/10 07:38:37;;;;;;;5.37;4.37;;;;;;;19.12;50.80;102026.19;5051840;28;20987;-48
2022/07/10 07:41:06;;;;;;;8.00;4.10;;;;;;;18.65;50.81;102030.31;5051553;28;20990;-49
2022/07/10 07:43:34;;;;;;;7.60;4.20;;;;;;;18.36;51.58;102031.72;5052439;28;20534;-54
2022/07/10 07:46:02;;;;;;;7.27;4.00;;;;;;;18.05;52.81;102028.97;5051716;28;20538;-52
2022/07/10 07:48:29;;;;;;;5.70;4.10;;;;;;;18.25;51.66;102029.69;5051789;28;20936;-52
2022/07/10 07:50:57;;;;;;;6.60;4.00;;;;;;;18.71;50.69;102022.19;5042750;28;20810;-49
2022/07/10 07:53:25;;;;;;;7.03;4.00;;;;;;;19.30;48.53;102016.25;5031839;28;20526;-49
2022/07/10 07:55:53;;;;;;;9.33;4.37;;;;;;;19.00;50.38;102028.78;5032085;28;20520;-49
2022/07/10 07:58:22;;;;;;;7.77;3.70;;;;;;;19.37;51.32;102010.78;5031577;28;20427;-49
2022/07/10 08:00:50;;;;;;;7.00;4.20;;;;;;;19.30;51.45;102026.22;5031333;28;20562;-50
2022/07/10 08:03:18;;;;;;;7.50;5.07;;;;;;;19.48;48.05;102029.00;5031879;28;20781;-49
2022/07/10 08:05:46;;;;;;;5.67;4.13;;;;;;;19.33;49.37;102023.91;5031542;28;20432;-51
2022/07/10 08:08:14;;;;;;;7.20;4.13;;;;;;;18.96;49.59;101997.88;5031463;28;20463;-49
2022/07/10 08:10:41;;;;;;;8.17;4.40;;;;;;;19.24;50.61;102014.44;5031593;28;20531;-48
2022/07/10 08:13:12;;;;;;;7.10;4.60;;;;;;;19.20;51.29;102005.09;5031495;28;20451;-52
2022/07/10 08:15:41;;;;;;;4.43;4.00;;;;;;;19.23;51.53;102025.50;5036524;28;20427;-51
2022/07/10 08:18:08;;;;;;;7.43;4.33;;;;;;;18.70;50.48;102014.28;5051392;28;20521;-47
2022/07/10 08:20:36;;;;;;;7.30;4.60;;;;;;;17.81;52.06;102027.00;5051770;28;20510;-50
2022/07/10 08:23:04;;;;;;;6.37;5.67;;;;;;;17.39;55.67;102034.53;5050180;28;20561;-48
2022/07/10 08:25:33;;;;;;;8.00;4.30;;;;;;;17.76;56.48;102038.44;5032765;28;20534;-50
2022/07/10 08:28:02;;;;;;;10.10;5.00;;;;;;;17.74;52.79;102020.81;5030996;28;20984;-47
2022/07/10 08:30:30;;;;;;;5.00;4.40;;;;;;;18.06;56.71;102023.38;5030911;28;20432;-51
2022/07/10 08:33:00;;;;;;;7.17;4.17;;;;;;;18.49;52.36;102026.25;5038860;28;20818;-51
2022/07/10 08:35:28;;;;;;;10.10;4.60;;;;;;;18.47;51.72;102011.28;5045812;28;20529;-51
2022/07/10 08:37:56;;;;;;;5.20;4.70;;;;;;;18.44;51.86;102020.66;5047779;28;20443;-52
2022/07/10 08:40:24;;;;;;;6.20;3.97;;;;;;;18.33;49.08;102020.53;5031264;28;21066;-48
2022/07/10 08:42:54;;;;;;;5.60;3.97;;;;;;;18.71;49.33;102029.44;5030756;28;20542;-48
2022/07/10 08:45:22;;;;;;;5.63;4.63;;;;;;;18.76;49.03;102019.63;5030379;28;20427;-48
2022/07/10 08:47:51;;;;;;;8.73;3.77;;;;;;;18.43;51.44;102026.28;5027366;28;20989;-46
2022/07/10 08:50:24;;;;;;;9.43;4.20;;;;;;;18.36;52.19;102036.31;5039545;28;20519;-47
2022/07/10 08:52:57;;;;;;;6.30;3.70;;;;;;;17.79;55.29;102031.78;5048779;28;20458;-50
2022/07/10 08:55:26;;;;;;;5.53;4.00;;;;;;;17.48;54.52;102033.28;5051795;28;20521;-48
2022/07/10 08:57:56;;;;;;;9.33;4.73;;;;;;;17.29;56.37;102027.94;5045654;28;20531;-51
2022/07/10 09:00:24;;;;;;;10.60;4.60;;;;;;;17.22;55.78;102032.50;5029490;28;20542;-50
2022/07/10 09:02:53;;;;;;;7.83;4.80;;;;;;;17.04;57.41;102042.03;5030947;28;20460;-49
2022/07/10 09:05:23;;;;;;;10.83;4.30;;;;;;;16.98;55.32;102034.78;5031463;28;20439;-49
2022/07/10 09:07:51;;;;;;;8.73;5.00;;;;;;;17.03;56.40;102039.53;5031898;28;20440;-50
2022/07/10 09:10:22;;;;;;;5.00;3.50;;;;;;;17.14;55.14;102031.66;5031015;28;20540;-49
2022/07/10 09:12:51;;;;;;;9.90;4.40;;;;;;;17.01;56.10;102028.97;5032093;28;20547;-49
2022/07/10 09:15:21;;;;;;;6.00;4.37;;;;;;;16.92;57.34;102032.09;5042598;28;20803;-48
2022/07/10 09:17:54;;;;;;;7.83;4.60;;;;;;;17.16;57.53;102034.16;5051285;28;20471;-47
2022/07/10 09:20:27;;;;;;;8.10;4.97;;;;;;;17.11;58.57;102034.75;5051134;28;20475;-49
2022/07/10 09:22:57;;;;;;;11.70;5.17;;;;;;;17.02;58.61;102027.13;5047231;28;20543;-49
2022/07/10 09:25:31;;;;;;;5.87;4.00;;;;;;;16.90;58.10;102018.84;5031860;28;20877;-48
2022/07/10 09:28:01;;;;;;;9.37;5.60;;;;;;;16.96;60.21;102034.19;5031481;28;20434;-51
2022/07/10 09:30:34;;;;;;;4.40;4.00;;;;;;;17.14;58.80;102042.44;5032180;28;20547;-53
2022/07/10 09:33:19;;;;;;;9.90;4.50;;;;;;;17.14;57.07;102026.25;5031286;28;20810;-51
2022/07/10 09:36:05;;;;;;;11.83;4.70;;;;;;;17.38;58.44;102032.88;5032937;28;20514;-48
2022/07/10 09:38:50;;;;;;;8.87;5.20;;;;;;;17.24;56.92;102041.19;5029668;28;20459;-50
2022/07/10 09:41:20;;;;;;;5.37;4.03;;;;;;;17.35;57.45;102035.97;5029995;28;20464;-47
2022/07/10 09:43:48;;;;;;;7.60;3.87;;;;;;;17.20;59.12;102021.94;5032499;28;20514;-49
2022/07/10 09:46:17;;;;;;;5.60;3.70;;;;;;;17.34;58.43;102026.25;5030398;28;20531;-48
2022/07/10 09:48:45;;;;;;;4.93;4.03;;;;;;;17.34;59.42;102028.13;5043107;28;20441;-47
2022/07/10 09:51:14;;;;;;;8.67;4.90;;;;;;;17.28;59.77;102034.34;5046874;28;20541;-49
2022/07/10 09:53:43;;;;;;;7.67;4.83;;;;;;;17.28;59.19;102026.25;5054669;28;20982;-47
2022/07/10 09:56:12;;;;;;;6.80;4.20;;;;;;;17.25;59.07;102026.69;5054453;28;20530;-45
2022/07/10 09:58:40;;;;;;;5.73;4.67;;;;;;;17.17;60.95;102029.59;5054250;28;20939;-49
2022/07/10 10:01:09;;;;;;;10.10;5.17;;;;;;;17.26;59.54;102022.97;5031518;28;20844;-49
2022/07/10 10:03:39;;;;;;;7.27;4.57;;;;;;;17.36;61.93;102029.56;5034195;28;20431;-48
2022/07/10 10:06:13;;;;;;;5.67;4.00;;;;;;;17.56;61.13;102024.19;5033690;28;20440;-50
2022/07/10 10:08:52;;;;;;;8.53;4.63;;;;;;;17.75;60.68;102023.28;5035054;28;20434;-48
2022/07/10 10:11:21;;;;;;;7.93;4.23;;;;;;;17.78;56.78;102016.63;5035271;28;20467;-51
2022/07/10 10:13:50;;;;;;;5.93;4.17;;;;;;;17.64;56.45;102021.25;5034392;28;20530;-46
2022/07/10 10:16:20;;;;;;;8.03;4.43;;;;;;;17.65;58.49;102031.81;5034307;28;20531;-53
2022/07/10 10:21:34;;;;;;;7.60;4.60;;;;;;;17.26;57.93;102026.50;5033850;28;20566;-45
2022/07/10 10:24:03;;;;;;;7.27;4.73;;;;;;;17.17;58.98;102031.25;5034245;28;20683;-48
2022/07/10 10:26:32;;;;;;;10.90;4.37;;;;;;;16.96;61.97;102030.66;5033953;28;20454;-51
2022/07/10 10:29:01;;;;;;;7.50;4.87;;;;;;;16.80;61.13;102029.19;5034185;28;20526;-49
2022/07/10 10:31:30;;;;;;;6.93;4.17;;;;;;;16.99;62.55;102031.03;5033510;28;20849;-49
2022/07/10 10:34:00;;;;;;;7.00;5.00;;;;;;;16.94;61.69;102036.22;5044174;28;20432;-47
2022/07/10 10:36:47;;;;;;;4.97;4.10;;;;;;;17.62;59.96;102031.44;5053916;28;20488;-48
2022/07/10 10:39:18;;;;;;;16.70;4.30;;;;;;;17.75;57.79;102011.66;5053874;28;20521;-51
2022/07/10 10:41:52;;;;;;;4.30;3.87;;;;;;;17.49;56.60;102026.03;5052664;28;20549;-49
2022/07/10 10:44:25;;;;;;;6.73;4.63;;;;;;;17.60;58.91;102034.31;5053382;28;20770;-48
2022/07/10 10:47:00;;;;;;;4.37;3.90;;;;;;;17.94;56.65;102032.34;5054037;28;20435;-47
2022/07/10 10:49:50;;;;;;;10.80;4.17;;;;;;;18.13;53.69;102037.66;5053865;28;20433;-48
2022/07/10 10:52:18;;;;;;;6.37;4.00;;;;;;;18.65;56.48;102023.06;5052761;28;20557;-46
2022/07/10 10:55:10;;;;;;;7.23;3.57;;;;;;;18.71;58.67;102030.28;5053579;28;20431;-49
2022/07/10 10:57:44;;;;;;;4.53;3.60;;;;;;;18.82;57.60;102022.53;5050256;28;20481;-50
2022/07/10 11:00:15;;;;;;;4.30;3.13;;;;;;;18.53;55.24;102026.66;5033035;28;20837;-49
2022/07/10 11:02:43;;;;;;;4.97;3.50;;;;;;;18.44;55.24;102031.47;5031876;28;20550;-50
2022/07/10 11:05:41;;;;;;;6.53;4.20;;;;;;;18.43;58.35;102029.00;5038144;28;20435;-51
2022/07/10 11:08:10;;;;;;;8.53;4.53;;;;;;;18.93;57.62;102036.16;5037898;28;20438;-52
2022/07/10 11:10:40;;;;;;;5.13;4.00;;;;;;;18.96;55.84;102040.28;5052895;28;20522;-46
2022/07/10 11:13:16;;;;;;;6.77;3.63;;;;;;;18.42;57.91;102046.25;5052824;28;20438;-47
2022/07/10 11:15:46;;;;;;;6.33;3.87;;;;;;;18.27;57.27;102038.44;5053380;28;20430;-47
2022/07/10 11:18:15;;;;;;;5.73;4.17;;;;;;;18.23;58.52;102048.81;5053249;28;20879;-47
2022/07/10 11:20:46;;;;;;;6.20;4.00;;;;;;;18.20;57.03;102043.03;5052612;28;20494;-47
2022/07/10 11:23:49;;;;;;;4.57;3.43;;;;;;;18.21;56.17;102040.13;5053006;28;20430;-48
2022/07/10 11:26:31;;;;;;;4.83;3.27;;;;;;;18.14;56.45;102044.72;5053053;28;20527;-47
2022/07/10 11:29:05;;;;;;;9.57;3.83;;;;;;;18.65;56.84;102038.44;5053165;28;20522;-48
2022/07/10 11:31:37;;;;;;;8.33;3.87;;;;;;;18.68;57.78;102038.81;5054786;28;20502;-47
2022/07/10 11:34:05;;;;;;;4.80;3.13;;;;;;;18.45;58.50;102043.09;5047425;28;20433;-51